Time;durP1;ratioP1;P1;durP2;ratioP2;P2;SDS_P1;SDS_P2;PMS_P1;PMS_P2;Temp;Humidity;BMP_temperature;BMP_pressure;BME280_temperature;BME280_humidity;BME280_pressure;Samples;Min_cycle;Max_cycle;Signal;HPM_P1;HPM_P2
2023/08/01 00:02:24;;;;;;;4.53;3.40;;;19.60;99.90;;;;;;21004791;28;20329;-77
2023/08/01 00:12:27;;;;;;;8.97;3.43;;;19.50;99.90;;;;;;21003733;28;20602;-75
2023/08/01 00:22:29;;;;;;;7.57;3.90;;;19.50;99.90;;;;;;21003024;28;20274;-75
2023/08/01 00:32:31;;;;;;;5.13;3.33;;;19.50;99.90;;;;;;21001815;28;20609;-76
2023/08/01 00:42:36;;;;;;;6.50;3.93;;;19.50;99.90;;;;;;20999848;28;20288;-76
2023/08/01 00:52:38;;;;;;;5.83;3.80;;;19.40;99.90;;;;;;21000339;28;20216;-73
2023/08/01 01:02:40;;;;;;;6.30;3.60;;;19.40;99.90;;;;;;20999219;28;20276;-76
2023/08/01 01:12:42;;;;;;;5.23;3.50;;;19.30;99.90;;;;;;20998891;28;20237;-75
2023/08/01 01:22:43;;;;;;;6.23;3.47;;;19.30;99.90;;;;;;20997864;28;20241;-73
2023/08/01 01:32:45;;;;;;;4.60;3.33;;;19.30;99.90;;;;;;20997135;28;20203;-70
2023/08/01 01:42:49;;;;;;;7.47;3.90;;;19.30;99.90;;;;;;20996800;28;20577;-77
2023/08/01 01:52:50;;;;;;;6.97;3.70;;;19.30;99.90;;;;;;20996262;28;20604;-77
2023/08/01 02:02:52;;;;;;;8.20;3.67;;;19.30;99.90;;;;;;20995904;28;20340;-76
2023/08/01 02:12:54;;;;;;;6.97;3.50;;;19.30;99.90;;;;;;20995236;28;20238;-76
2023/08/01 02:22:56;;;;;;;7.03;3.63;;;19.20;99.90;;;;;;20994968;28;20242;-76
2023/08/01 02:32:57;;;;;;;7.13;3.67;;;19.30;99.90;;;;;;20994449;28;20298;-69
2023/08/01 02:42:59;;;;;;;7.60;4.00;;;19.30;99.90;;;;;;20993881;28;20233;-70
2023/08/01 02:53:01;;;;;;;7.70;3.63;;;19.20;99.90;;;;;;20993822;28;20225;-69
2023/08/01 03:03:03;;;;;;;5.77;3.23;;;19.20;99.90;;;;;;20993626;28;20234;-76
2023/08/01 03:13:05;;;;;;;5.73;3.47;;;19.20;99.90;;;;;;21008042;28;20237;-76
2023/08/01 03:23:06;;;;;;;4.73;3.40;;;19.10;99.90;;;;;;21007730;28;20293;-74
2023/08/01 03:33:08;;;;;;;4.87;3.30;;;19.10;99.90;;;;;;21007195;28;20211;-75
2023/08/01 03:43:10;;;;;;;11.00;6.40;;;19.10;99.90;;;;;;21005702;28;20240;-70
2023/08/01 03:53:12;;;;;;;4.90;3.47;;;19.10;99.90;;;;;;21024985;28;20242;-74
2023/08/01 04:03:13;;;;;;;5.90;3.60;;;19.00;99.90;;;;;;21004179;28;20236;-73
2023/08/01 04:13:16;;;;;;;7.50;3.80;;;19.00;99.90;;;;;;21003421;28;20244;-73
2023/08/01 04:23:17;;;;;;;6.03;4.60;;;19.00;99.90;;;;;;21002210;28;20280;-70
2023/08/01 04:33:19;;;;;;;6.33;4.67;;;19.00;99.90;;;;;;21001468;28;20297;-73
2023/08/01 04:43:21;;;;;;;5.93;3.90;;;19.00;99.90;;;;;;21000995;28;20238;-75
2023/08/01 04:53:23;;;;;;;4.37;3.30;;;18.90;99.90;;;;;;21000295;28;20201;-76
2023/08/01 05:03:24;;;;;;;5.73;3.17;;;18.90;99.90;;;;;;20996561;28;20775;-75
2023/08/01 05:13:26;;;;;;;5.33;3.60;;;18.90;99.90;;;;;;20998281;28;20236;-76
2023/08/01 05:23:28;;;;;;;5.77;2.77;;;19.00;99.90;;;;;;20997941;28;20294;-69
2023/08/01 05:33:31;;;;;;;3.77;2.70;;;18.90;99.90;;;;;;20994574;28;20293;-69
2023/08/01 05:43:33;;;;;;;5.23;3.40;;;18.90;99.90;;;;;;20995131;28;20237;-68
2023/08/01 05:53:36;;;;;;;4.87;4.03;;;18.90;99.90;;;;;;20997378;28;20247;-74
2023/08/01 06:03:38;;;;;;;5.70;3.00;;;18.90;99.90;;;;;;20994752;28;20324;-75
2023/08/01 06:13:41;;;;;;;5.83;3.17;;;19.00;99.90;;;;;;20994089;28;20273;-74
2023/08/01 06:23:43;;;;;;;4.43;3.37;;;19.00;99.90;;;;;;20994633;28;20324;-71
2023/08/01 06:33:44;;;;;;;5.63;3.50;;;19.00;99.90;;;;;;20994296;28;20997;-72
2023/08/01 06:43:46;;;;;;;4.03;2.77;;;19.00;99.90;;;;;;21003740;28;20324;-75
2023/08/01 06:53:48;;;;;;;5.17;2.60;;;19.00;99.90;;;;;;21009202;28;20250;-69
2023/08/01 07:03:51;;;;;;;4.10;3.03;;;19.00;99.90;;;;;;21007436;28;20269;-72
2023/08/01 07:13:53;;;;;;;4.00;2.87;;;19.00;99.90;;;;;;21006888;28;20671;-74
2023/08/01 07:23:55;;;;;;;6.73;2.83;;;19.00;99.90;;;;;;21007271;28;20241;-73
2023/08/01 07:33:57;;;;;;;4.20;3.17;;;19.00;99.90;;;;;;21005733;28;20209;-73
2023/08/01 07:44:00;;;;;;;4.83;3.67;;;19.00;99.90;;;;;;21004527;28;20238;-75
2023/08/01 07:54:02;;;;;;;3.40;2.70;;;19.10;99.90;;;;;;21026924;28;20300;-74
2023/08/01 08:04:04;;;;;;;4.87;2.77;;;19.10;99.90;;;;;;21003404;28;20234;-69
2023/08/01 08:14:05;;;;;;;3.70;2.33;;;19.40;99.90;;;;;;21003111;28;20206;-73
2023/08/01 08:24:07;;;;;;;4.73;2.30;;;19.70;99.90;;;;;;21002053;28;20234;-74
2023/08/01 08:34:09;;;;;;;2.90;1.70;;;19.70;99.90;;;;;;21001835;28;20689;-73
2023/08/01 08:44:16;;;;;;;2.27;1.27;;;19.80;99.90;;;;;;21000814;28;20289;-74
2023/08/01 08:54:19;;;;;;;2.60;1.20;;;19.90;99.90;;;;;;21000068;28;20632;-69
2023/08/01 09:04:21;;;;;;;1.30;1.17;;;20.00;99.90;;;;;;20998015;28;20246;-72
2023/08/01 09:14:22;;;;;;;1.30;1.10;;;19.90;99.90;;;;;;20997714;28;20213;-68
2023/08/01 09:24:24;;;;;;;2.33;1.80;;;19.80;99.90;;;;;;20997123;28;20322;-71
2023/08/01 09:34:27;;;;;;;1.67;1.27;;;19.30;99.90;;;;;;20997307;28;20240;-69
2023/08/01 09:44:30;;;;;;;3.30;1.50;;;18.60;99.90;;;;;;20996489;28;20233;-70
2023/08/01 09:54:32;;;;;;;1.33;1.00;;;18.40;99.90;;;;;;20995378;28;20214;-68
2023/08/01 10:04:36;;;;;;;1.40;1.20;;;18.60;99.90;;;;;;20995974;28;20564;-73
2023/08/01 10:14:39;;;;;;;6.70;2.43;;;18.70;99.90;;;;;;21003797;28;20259;-73
2023/08/01 10:24:41;;;;;;;7.23;1.30;;;19.40;99.90;;;;;;21022133;28;20235;-70
2023/08/01 10:34:51;;;;;;;1.27;1.10;;;20.10;99.90;;;;;;21022118;28;20210;-72
2023/08/01 10:44:53;;;;;;;1.33;1.00;;;20.50;99.90;;;;;;21021247;28;20234;-69
2023/08/01 10:55:04;;;;;;;1.80;1.30;;;20.40;99.90;;;;;;21022190;28;20210;-73
2023/08/01 11:05:07;;;;;;;4.20;2.23;;;20.30;99.90;;;;;;21020815;28;20234;-74
2023/08/01 11:15:14;;;;;;;3.53;1.60;;;20.40;99.90;;;;;;21017670;28;20237;-75
2023/08/01 11:25:16;;;;;;;4.90;1.30;;;20.70;99.80;;;;;;21016268;28;20318;-74
2023/08/01 11:35:19;;;;;;;4.37;1.80;;;20.90;99.00;;;;;;21004930;28;20513;-75
2023/08/01 11:45:21;;;;;;;1.50;1.40;;;21.00;98.80;;;;;;21003861;28;20635;-75
2023/08/01 11:55:26;;;;;;;3.53;1.40;;;21.70;98.30;;;;;;21004633;28;20203;-75
2023/08/01 12:05:28;;;;;;;7.53;2.87;;;21.90;96.80;;;;;;21027154;28;20237;-74
2023/08/01 12:15:30;;;;;;;4.80;2.33;;;21.60;96.70;;;;;;21014746;28;20211;-69
2023/08/01 12:25:32;;;;;;;4.00;3.03;;;21.60;96.40;;;;;;21002234;28;20686;-74
2023/08/01 12:35:33;;;;;;;2.23;1.30;;;21.70;95.90;;;;;;21001739;28;20203;-72
2023/08/01 12:45:35;;;;;;;2.47;1.50;;;21.80;95.90;;;;;;21000331;28;20330;-70
2023/08/01 12:55:37;;;;;;;4.20;1.30;;;22.20;94.90;;;;;;20999957;28;20701;-71
2023/08/01 13:05:40;;;;;;;2.33;1.70;;;22.50;91.70;;;;;;20999137;28;20239;-74
2023/08/01 13:15:42;;;;;;;2.93;1.10;;;22.80;85.80;;;;;;21025862;28;20202;-75
2023/08/01 13:25:46;;;;;;;3.30;2.53;;;22.80;77.00;;;;;;21130420;28;20225;-72
2023/08/01 13:35:51;;;;;;;1.57;1.17;;;22.90;72.70;;;;;;21119715;28;20230;-78
2023/08/01 13:45:53;;;;;;;1.90;1.00;;;23.10;69.60;;;;;;21081630;28;20311;-80
2023/08/01 13:55:55;;;;;;;1.57;1.10;;;23.30;65.50;;;;;;21151787;28;20204;-81
2023/08/01 14:06:08;;;;;;;2.87;1.60;;;23.60;62.70;;;;;;21166520;28;20463;-84
2023/08/01 14:16:09;;;;;;;1.27;1.13;;;23.90;60.40;;;;;;21138060;28;20293;-75
2023/08/01 14:26:11;;;;;;;2.40;1.20;;;24.60;59.80;;;;;;21090927;28;20692;-75
2023/08/01 14:36:13;;;;;;;2.60;1.40;;;23.90;59.80;;;;;;21161897;28;20609;-71
2023/08/01 14:46:15;;;;;;;2.53;1.50;;;23.80;64.70;;;;;;21132586;28;20230;-70
2023/08/01 14:56:17;;;;;;;1.80;1.60;;;23.10;67.40;;;;;;21077157;28;20275;-78
2023/08/01 15:06:19;;;;;;;1.60;1.40;;;23.60;68.50;;;;;;21086414;28;20248;-81
2023/08/01 15:16:21;;;;;;;2.87;1.50;;;23.40;66.40;;;;;;21092851;28;20213;-82
2023/08/01 15:26:23;;;;;;;2.60;1.30;;;22.90;64.60;;;;;;21168693;28;20257;-78
2023/08/01 15:36:28;;;;;;;5.23;1.77;;;23.10;64.00;;;;;;21175606;28;20206;-69
2023/08/01 15:46:30;;;;;;;2.87;1.40;;;23.50;63.20;;;;;;21173750;28;20710;-68
2023/08/01 15:56:31;;;;;;;2.30;1.40;;;22.90;62.90;;;;;;21173090;28;20205;-74
2023/08/01 16:06:33;;;;;;;2.87;1.63;;;22.50;65.50;;;;;;21172043;28;20252;-73
2023/08/01 16:16:35;;;;;;;3.17;2.00;;;21.20;74.60;;;;;;21042147;28;20210;-73
2023/08/01 16:26:37;;;;;;;5.90;2.20;;;19.10;91.10;;;;;;21085951;28;20332;-73
2023/08/01 16:36:39;;;;;;;7.90;1.90;;;18.70;97.10;;;;;;21085836;28;20691;-66
2023/08/01 16:46:41;;;;;;;2.23;1.70;;;19.00;97.60;;;;;;21084358;28;20234;-66
2023/08/01 16:56:42;;;;;;;2.63;1.70;;;19.20;98.20;;;;;;21083816;28;20208;-70
2023/08/01 17:06:45;;;;;;;5.20;1.50;;;19.40;98.50;;;;;;21082651;28;20297;-68
2023/08/01 17:16:47;;;;;;;2.83;1.73;;;19.30;98.60;;;;;;21083039;28;20209;-71
2023/08/01 17:26:49;;;;;;;2.73;1.60;;;19.20;98.60;;;;;;21081337;28;20238;-69
2023/08/01 17:36:51;;;;;;;3.90;1.70;;;19.10;98.60;;;;;;21079351;28;20298;-67
2023/08/01 17:46:53;;;;;;;2.27;1.60;;;19.20;98.90;;;;;;21075773;28;20235;-65
2023/08/01 17:56:55;;;;;;;3.03;1.50;;;19.40;98.90;;;;;;21077832;28;20221;-63
2023/08/01 18:06:57;;;;;;;4.87;2.00;;;19.70;98.60;;;;;;21079268;28;20249;-64
2023/08/01 18:16:59;;;;;;;4.00;1.67;;;19.60;98.50;;;;;;21078639;28;20290;-64
2023/08/01 18:27:00;;;;;;;3.87;1.47;;;19.60;98.40;;;;;;21077798;28;20711;-65
2023/08/01 18:37:02;;;;;;;5.77;1.93;;;19.30;98.30;;;;;;21082698;28;20305;-67
2023/08/01 18:47:04;;;;;;;5.80;1.70;;;19.20;98.30;;;;;;21094344;28;20292;-67
2023/08/01 18:57:06;;;;;;;4.90;2.23;;;19.10;98.30;;;;;;21033245;28;20308;-70
2023/08/01 19:07:08;;;;;;;5.67;2.27;;;18.90;98.30;;;;;;21039008;28;20276;-76
2023/08/01 19:17:10;;;;;;;3.23;1.60;;;18.90;98.30;;;;;;21013213;28;20206;-73
2023/08/01 19:27:11;;;;;;;4.00;1.60;;;19.00;98.30;;;;;;21043197;28;20291;-64
2023/08/01 19:37:13;;;;;;;6.30;1.73;;;19.00;97.90;;;;;;21044072;28;20296;-78
2023/08/01 19:47:15;;;;;;;3.30;1.67;;;19.00;97.90;;;;;;21043758;28;20243;-79
2023/08/01 19:57:17;;;;;;;2.70;1.80;;;19.00;98.00;;;;;;21045869;28;20316;-80
2023/08/01 20:07:18;;;;;;;4.13;1.70;;;18.80;98.20;;;;;;21039202;28;20329;-64
2023/08/01 20:17:20;;;;;;;2.67;1.60;;;18.90;98.80;;;;;;21040370;28;20655;-77
2023/08/01 20:27:22;;;;;;;2.80;1.57;;;18.80;98.50;;;;;;21036817;28;20249;-80
2023/08/01 20:37:24;;;;;;;7.10;1.93;;;18.90;98.40;;;;;;21037891;28;20304;-70
2023/08/01 20:47:25;;;;;;;4.20;1.77;;;18.80;98.30;;;;;;21039010;28;20290;-84
2023/08/01 20:57:27;;;;;;;3.23;1.50;;;18.70;98.40;;;;;;21038146;28;20213;-71
2023/08/01 21:07:29;;;;;;;3.60;1.97;;;18.70;98.40;;;;;;21044015;28;20241;-68
2023/08/01 21:17:31;;;;;;;2.77;1.63;;;18.50;98.10;;;;;;21041510;28;20210;-79
2023/08/01 21:27:32;;;;;;;4.27;1.80;;;18.40;98.20;;;;;;20997935;28;20708;-74
2023/08/01 21:37:34;;;;;;;3.97;1.83;;;18.40;98.30;;;;;;20997322;28;20667;-65
2023/08/01 21:47:36;;;;;;;8.33;2.03;;;18.30;98.20;;;;;;20998011;28;20265;-77
2023/08/01 21:57:38;;;;;;;3.40;1.80;;;18.30;98.50;;;;;;20996985;28;20268;-69
2023/08/01 22:07:40;;;;;;;6.07;1.97;;;18.30;98.40;;;;;;20995998;28;20341;-70
2023/08/01 22:17:41;;;;;;;7.33;2.20;;;18.30;98.50;;;;;;20996720;28;20295;-69
2023/08/01 22:27:43;;;;;;;4.80;2.20;;;18.30;98.40;;;;;;20995145;28;20243;-64
2023/08/01 22:37:45;;;;;;;5.33;2.30;;;18.20;98.50;;;;;;20994555;28;20260;-65
2023/08/01 22:47:51;;;;;;;5.87;1.90;;;18.20;98.60;;;;;;20994439;28;20715;-64
2023/08/01 22:57:53;;;;;;;4.83;2.13;;;18.20;98.60;;;;;;20993995;28;20207;-64
2023/08/01 23:07:57;;;;;;;3.93;2.00;;;18.20;98.50;;;;;;20993138;28;20284;-65
2023/08/01 23:17:58;;;;;;;8.03;2.50;;;18.10;98.20;;;;;;20993752;28;20213;-65
2023/08/01 23:28:00;;;;;;;4.97;2.50;;;18.00;98.20;;;;;;21004859;28;20253;-65
2023/08/01 23:38:02;;;;;;;6.60;2.37;;;;;;;;;;21006997;28;20302;-65
2023/08/01 23:48:04;;;;;;;4.17;2.20;;;18.00;98.30;;;;;;21007329;28;20245;-66
2023/08/01 23:58:06;;;;;;;9.47;2.47;;;17.90;98.30;;;;;;21005315;28;20219;-66
